Time;durP1;ratioP1;P1;durP2;ratioP2;P2;SDS_P1;SDS_P2;PMS_P1;PMS_P2;Temp;Humidity;BMP_temperature;BMP_pressure;BME280_temperature;BME280_humidity;BME280_pressure;Samples;Min_cycle;Max_cycle;Signal;HPM_P1;HPM_P2
2021/10/15 00:01:29;;;;;;;6.45;5.25;;;;;;;15.36;46.08;100420.13;1822609;77;20978;-59
2021/10/15 00:03:56;;;;;;;6.67;5.97;;;;;;;15.36;46.07;100424.66;1818492;77;21532;-60
2021/10/15 00:06:22;;;;;;;6.17;5.58;;;;;;;15.36;46.09;100424.66;1823187;77;21044;-59
2021/10/15 00:08:48;;;;;;;7.33;6.03;;;;;;;15.34;46.08;100418.14;1819671;77;21848;-58
2021/10/15 00:11:15;;;;;;;6.08;5.47;;;;;;;15.33;46.08;100425.83;1821998;78;21014;-59
2021/10/15 00:13:41;;;;;;;6.00;5.22;;;;;;;15.32;46.09;100426.34;1817244;78;21060;-61
2021/10/15 00:16:08;;;;;;;6.25;5.65;;;;;;;15.32;46.11;100418.83;1816663;78;21060;-60
2021/10/15 00:18:34;;;;;;;6.97;6.28;;;;;;;15.31;46.09;100419.83;1819606;77;21588;-64
2021/10/15 00:21:00;;;;;;;7.60;6.20;;;;;;;15.30;46.08;100417.67;1820700;77;21112;-59
2021/10/15 00:23:27;;;;;;;6.67;5.65;;;;;;;15.29;46.09;100414.66;1824088;77;21021;-60
2021/10/15 00:25:53;;;;;;;6.30;5.65;;;;;;;15.29;46.10;100413.31;1825682;78;21005;-61
2021/10/15 00:28:21;;;;;;;6.55;5.22;;;;;;;15.28;46.08;100410.84;1825694;77;20986;-60
2021/10/15 00:30:49;;;;;;;5.85;5.25;;;;;;;15.28;46.09;100413.52;1801330;77;21490;-60
2021/10/15 00:33:15;;;;;;;6.15;5.47;;;;;;;15.26;46.08;100411.02;1822752;78;21705;-60
2021/10/15 00:35:42;;;;;;;6.35;5.75;;;;;;;15.25;46.09;100408.52;1824013;77;21024;-60
2021/10/15 00:38:08;;;;;;;6.08;5.47;;;;;;;15.25;46.08;100409.86;1818832;78;21071;-60
2021/10/15 00:40:34;;;;;;;7.08;5.97;;;;;;;15.24;46.09;100408.18;1815372;77;21098;-59
2021/10/15 00:43:01;;;;;;;5.67;5.17;;;;;;;15.22;46.10;100408.88;1816446;77;21554;-59
2021/10/15 00:45:28;;;;;;;6.65;6.00;;;;;;;15.22;46.07;100415.08;1824385;77;21561;-59
2021/10/15 00:47:54;;;;;;;6.33;5.72;;;;;;;15.21;46.09;100409.91;1823306;77;21045;-59
2021/10/15 00:50:22;;;;;;;7.67;6.12;;;;;;;15.20;46.08;100416.26;1818443;77;21024;-61
2021/10/15 00:52:49;;;;;;;6.42;5.53;;;;;;;15.19;46.08;100412.76;1823333;77;21045;-60
2021/10/15 00:55:15;;;;;;;6.60;5.90;;;;;;;15.19;46.08;100413.27;1804654;77;21025;-60
2021/10/15 00:57:41;;;;;;;6.20;5.60;;;;;;;15.18;46.09;100417.77;1823928;77;22003;-60
2021/10/15 01:00:09;;;;;;;6.40;5.55;;;;;;;15.16;46.09;100410.95;1820285;77;21068;-59
2021/10/15 01:02:36;;;;;;;6.47;5.87;;;;;;;15.16;46.09;100409.61;1823261;78;21021;-58
2021/10/15 01:05:05;;;;;;;6.17;5.55;;;;;;;15.15;46.10;100407.45;1821422;77;21560;-59
2021/10/15 01:07:32;;;;;;;7.50;6.33;;;;;;;15.14;46.08;100409.78;1824087;77;21058;-59
2021/10/15 01:09:58;;;;;;;6.20;5.58;;;;;;;15.13;46.09;100400.93;1821043;77;21115;-59
2021/10/15 01:12:25;;;;;;;6.42;5.35;;;;;;;15.12;46.09;100399.28;1821658;77;21052;-58
2021/10/15 01:14:51;;;;;;;6.97;6.28;;;;;;;15.12;46.10;100405.12;1810350;77;21507;-60
2021/10/15 01:17:17;;;;;;;6.58;5.60;;;;;;;15.10;46.08;100405.33;1823984;77;21045;-60
2021/10/15 01:19:44;;;;;;;6.67;6.05;;;;;;;15.09;46.09;100406.33;1825458;78;21064;-58
2021/10/15 01:22:11;;;;;;;6.10;5.47;;;;;;;15.10;46.08;100411.16;1825757;78;21071;-58
2021/10/15 01:24:38;;;;;;;6.37;5.72;;;;;;;15.09;46.09;100412.19;1823687;77;21013;-59
2021/10/15 01:27:08;;;;;;;5.97;5.35;;;;;;;15.07;46.07;100407.02;1824933;78;21054;-59
2021/10/15 01:29:36;;;;;;;6.53;5.92;;;;;;;15.07;46.09;100403.52;1851109;77;21006;-58
2021/10/15 01:32:04;;;;;;;6.55;5.83;;;;;;;15.06;46.09;100401.84;1810927;77;21040;-63
2021/10/15 01:34:32;;;;;;;6.70;6.00;;;;;;;15.05;46.08;100402.35;1822250;77;21054;-60
2021/10/15 01:36:58;;;;;;;7.12;6.42;;;;;;;15.04;46.08;100403.35;1823450;78;21017;-60
2021/10/15 01:39:24;;;;;;;7.28;6.05;;;;;;;15.02;46.08;100398.69;1821704;77;21016;-59
2021/10/15 01:41:51;;;;;;;6.90;5.97;;;;;;;15.02;46.08;100393.34;1825512;77;21027;-60
2021/10/15 01:44:19;;;;;;;6.55;5.95;;;;;;;15.01;46.06;100393.03;1825770;77;20978;-59
2021/10/15 01:46:46;;;;;;;7.53;6.78;;;;;;;15.00;46.05;100392.69;1850241;77;21120;-59
2021/10/15 01:49:12;;;;;;;6.08;5.47;;;;;;;15.01;46.06;100400.20;1812842;77;21001;-59
2021/10/15 01:51:41;;;;;;;7.22;6.12;;;;;;;14.99;46.06;100395.05;1847478;77;21478;-59
2021/10/15 01:54:07;;;;;;;6.53;5.83;;;;;;;14.98;46.07;100398.73;1824379;78;20996;-59
2021/10/15 01:56:34;;;;;;;7.45;5.83;;;;;;;14.97;46.06;100397.08;1823104;77;21060;-60
2021/10/15 01:59:00;;;;;;;7.42;6.08;;;;;;;14.96;46.04;100399.42;1822866;77;21916;-61
2021/10/15 02:01:27;;;;;;;6.20;5.60;;;;;;;14.96;46.07;100393.25;1821598;77;21448;-60
2021/10/15 02:03:53;;;;;;;6.67;5.95;;;;;;;14.94;46.07;100398.25;1838490;77;21052;-59
2021/10/15 02:06:19;;;;;;;7.00;5.90;;;;;;;14.93;46.05;100398.43;1805871;77;21064;-59
2021/10/15 02:08:46;;;;;;;7.62;6.70;;;;;;;14.92;46.06;100402.13;1821131;78;21028;-59
2021/10/15 02:11:13;;;;;;;7.25;6.25;;;;;;;14.91;46.07;100399.11;1818480;77;21119;-59
2021/10/15 02:13:40;;;;;;;6.83;6.12;;;;;;;14.90;46.07;100404.98;1821081;77;21497;-59
2021/10/15 02:16:06;;;;;;;6.58;5.87;;;;;;;14.89;46.09;100402.00;1823225;77;21540;-59
2021/10/15 02:18:34;;;;;;;6.80;6.08;;;;;;;14.88;46.05;100404.33;1818888;78;21030;-60
2021/10/15 02:21:01;;;;;;;6.50;5.90;;;;;;;14.88;46.07;100405.67;1821719;78;21001;-59
2021/10/15 02:23:27;;;;;;;7.28;6.37;;;;;;;14.87;46.07;100409.38;1814235;77;22083;-59
2021/10/15 02:25:54;;;;;;;7.78;6.97;;;;;;;14.86;46.08;100409.03;1849558;77;21060;-59
2021/10/15 02:28:20;;;;;;;6.78;6.08;;;;;;;14.86;46.07;100417.05;1826168;78;21013;-60
2021/10/15 02:30:48;;;;;;;7.62;6.83;;;;;;;14.85;46.07;100406.53;1824531;77;21052;-60
2021/10/15 02:33:15;;;;;;;7.60;6.42;;;;;;;14.84;46.08;100411.05;1825617;77;21492;-60
2021/10/15 02:35:41;;;;;;;7.42;5.80;;;;;;;14.82;46.07;100406.39;1825350;78;21480;-59
2021/10/15 02:38:07;;;;;;;6.08;5.47;;;;;;;14.82;46.10;100401.05;1824603;78;21059;-60
2021/10/15 02:40:34;;;;;;;6.53;5.80;;;;;;;14.82;46.09;100401.56;1815777;77;21028;-60
2021/10/15 02:43:00;;;;;;;6.60;5.87;;;;;;;14.82;46.08;100397.55;1822897;77;21019;-59
2021/10/15 02:45:27;;;;;;;6.22;5.62;;;;;;;14.81;46.08;100395.87;1822314;78;21012;-59
2021/10/15 02:47:53;;;;;;;7.75;6.25;;;;;;;14.80;46.08;100393.70;1822610;77;21082;-59
2021/10/15 02:50:19;;;;;;;7.08;6.37;;;;;;;14.80;46.09;100388.88;1811069;77;21055;-60
2021/10/15 02:52:46;;;;;;;7.62;6.72;;;;;;;14.79;46.09;100386.67;1804327;78;21058;-58
2021/10/15 02:55:12;;;;;;;7.25;6.33;;;;;;;14.78;46.07;100392.23;1839443;77;20984;-58
2021/10/15 02:57:39;;;;;;;6.97;5.92;;;;;;;14.76;46.07;100391.06;1815679;77;21001;-59
2021/10/15 03:00:07;;;;;;;6.90;6.22;;;;;;;14.76;46.08;100385.72;1807584;78;21489;-59
2021/10/15 03:02:35;;;;;;;7.42;6.10;;;;;;;14.75;46.09;100388.05;1821317;77;21017;-60
2021/10/15 03:05:01;;;;;;;6.85;6.17;;;;;;;14.75;46.07;100388.88;1808167;78;21083;-59
2021/10/15 03:07:27;;;;;;;6.85;6.17;;;;;;;14.74;46.08;100391.76;1825935;77;21518;-59
2021/10/15 03:09:54;;;;;;;7.62;6.33;;;;;;;14.74;46.08;100389.08;1822202;77;21075;-60
2021/10/15 03:12:22;;;;;;;7.12;5.95;;;;;;;14.73;46.08;100384.73;1823584;77;21534;-60
2021/10/15 03:14:50;;;;;;;7.08;6.37;;;;;;;14.72;46.07;100387.09;1814196;77;21002;-60
2021/10/15 03:17:16;;;;;;;7.45;6.65;;;;;;;14.72;46.08;100387.09;1829879;76;21032;-60
2021/10/15 03:19:43;;;;;;;7.67;6.55;;;;;;;14.70;46.07;100385.93;1826908;76;21567;-59
2021/10/15 03:22:09;;;;;;;7.10;6.22;;;;;;;14.70;46.07;100389.94;1828586;77;21044;-60
2021/10/15 03:24:37;;;;;;;6.62;5.92;;;;;;;14.69;46.06;100391.45;1832136;77;20961;-59
2021/10/15 03:27:04;;;;;;;7.65;6.37;;;;;;;14.69;46.09;100396.28;1836937;76;21118;-59
2021/10/15 03:29:31;;;;;;;7.25;6.28;;;;;;;14.68;46.07;100389.77;1827778;77;21083;-60
2021/10/15 03:31:57;;;;;;;6.70;6.03;;;;;;;14.67;46.08;100394.81;1828921;77;21477;-60
2021/10/15 03:34:23;;;;;;;7.50;6.15;;;;;;;14.67;46.10;100398.82;1829345;76;21028;-59
2021/10/15 03:36:50;;;;;;;7.58;6.78;;;;;;;14.66;46.08;100396.66;1828323;76;21096;-59
2021/10/15 03:39:16;;;;;;;7.00;6.00;;;;;;;14.66;46.07;100397.14;1829419;77;21594;-59
2021/10/15 03:41:42;;;;;;;7.40;6.55;;;;;;;14.65;46.07;100392.31;1825889;77;21005;-60
2021/10/15 03:44:09;;;;;;;6.67;6.08;;;;;;;14.64;46.07;100390.66;1833170;76;20981;-59
2021/10/15 03:46:35;;;;;;;7.15;6.05;;;;;;;14.63;46.08;100390.32;1839228;77;21074;-59
2021/10/15 03:49:01;;;;;;;7.42;6.62;;;;;;;14.63;46.08;100391.66;1833916;77;21745;-60
2021/10/15 03:51:28;;;;;;;8.98;7.28;;;;;;;14.63;46.04;100399.68;1830984;77;21477;-60
2021/10/15 03:53:55;;;;;;;7.35;6.53;;;;;;;14.63;46.03;100392.17;1834268;76;21082;-59
2021/10/15 03:56:21;;;;;;;7.97;6.53;;;;;;;14.62;46.04;100395.84;1831381;76;21012;-59
2021/10/15 03:58:47;;;;;;;8.15;6.85;;;;;;;14.62;46.03;100387.81;1825911;76;21583;-59
2021/10/15 04:01:13;;;;;;;7.67;6.70;;;;;;;14.61;46.04;100398.20;1838536;77;21142;-60
2021/10/15 04:03:40;;;;;;;7.65;6.53;;;;;;;14.60;46.03;100394.67;1830563;77;21054;-60
2021/10/15 04:06:06;;;;;;;7.85;7.05;;;;;;;14.59;46.04;100395.70;1846639;76;21076;-59
2021/10/15 04:08:32;;;;;;;8.68;7.00;;;;;;;14.59;46.04;100398.89;1832781;77;21028;-60
2021/10/15 04:11:00;;;;;;;7.65;6.85;;;;;;;14.58;46.05;100396.70;1819396;78;21084;-60
2021/10/15 04:13:28;;;;;;;7.15;6.45;;;;;;;14.56;46.06;100398.69;1793115;78;21157;-59
2021/10/15 04:15:56;;;;;;;7.45;6.65;;;;;;;14.57;46.04;100404.92;1796114;78;21001;-60
2021/10/15 04:18:24;;;;;;;8.33;7.20;;;;;;;14.57;46.05;100404.92;1787143;79;21056;-59
2021/10/15 04:20:51;;;;;;;7.97;6.37;;;;;;;14.55;46.04;100401.88;1760789;79;21038;-60
2021/10/15 04:23:18;;;;;;;9.48;7.65;;;;;;;14.54;46.07;100402.05;1765302;80;21005;-59
2021/10/15 04:25:45;;;;;;;8.40;7.22;;;;;;;14.54;46.08;100402.05;1791634;79;21070;-59
2021/10/15 04:28:11;;;;;;;8.05;7.25;;;;;;;14.54;46.08;100400.71;1777324;80;21014;-59
2021/10/15 04:30:37;;;;;;;7.78;6.97;;;;;;;14.53;46.07;100407.91;1775868;80;21596;-59
2021/10/15 04:33:04;;;;;;;8.48;6.95;;;;;;;14.52;46.07;100403.55;1764155;79;21032;-61
2021/10/15 04:35:30;;;;;;;7.37;6.65;;;;;;;14.53;46.08;100403.08;1772512;80;21051;-60
2021/10/15 04:37:57;;;;;;;8.58;6.65;;;;;;;14.52;46.07;100415.59;1788728;79;22041;-59
2021/10/15 04:40:23;;;;;;;8.88;7.65;;;;;;;14.53;46.07;100411.09;1775725;79;21471;-59
2021/10/15 04:42:50;;;;;;;8.00;7.20;;;;;;;14.52;46.08;100408.08;1780576;80;21055;-59
2021/10/15 04:45:16;;;;;;;7.37;6.60;;;;;;;14.52;46.07;100402.22;1774281;80;21065;-59
2021/10/15 04:47:42;;;;;;;8.58;7.67;;;;;;;14.52;46.08;100402.73;1780671;79;21595;-60
2021/10/15 04:50:09;;;;;;;7.60;6.80;;;;;;;14.52;46.06;100407.56;1778767;79;21120;-60
2021/10/15 04:52:35;;;;;;;8.65;6.90;;;;;;;14.52;46.07;100408.91;1773752;79;21037;-60
2021/10/15 04:55:02;;;;;;;7.60;6.65;;;;;;;14.52;46.07;100416.92;1779790;80;21060;-60
2021/10/15 04:57:30;;;;;;;7.35;6.65;;;;;;;14.53;46.06;100424.46;1769589;79;21081;-58
2021/10/15 04:59:56;;;;;;;8.55;7.65;;;;;;;14.53;46.07;100423.95;1795091;79;21016;-60
2021/10/15 05:02:23;;;;;;;9.23;7.62;;;;;;;14.54;46.04;100434.13;1777493;79;21129;-60
2021/10/15 05:04:49;;;;;;;8.43;7.53;;;;;;;14.53;46.05;100427.13;1771092;79;21076;-60
2021/10/15 05:07:15;;;;;;;8.40;7.50;;;;;;;14.52;46.02;100424.95;1779540;79;20990;-60
2021/10/15 05:09:43;;;;;;;7.83;7.03;;;;;;;14.52;46.03;100435.64;1783147;79;20995;-60
2021/10/15 05:12:16;;;;;;;8.28;6.97;;;;;;;14.53;46.02;100427.13;1770412;79;21014;-59
2021/10/15 05:14:44;;;;;;;8.78;7.40;;;;;;;14.55;46.01;100429.12;1773599;79;21549;-59
2021/10/15 05:17:11;;;;;;;7.72;6.92;;;;;;;14.54;46.02;100430.13;1789999;78;21525;-60
2021/10/15 05:19:39;;;;;;;8.40;7.40;;;;;;;14.53;46.00;100427.96;1770356;80;21052;-60
2021/10/15 05:22:06;;;;;;;7.67;6.95;;;;;;;14.54;45.99;100428.30;1779405;78;21079;-60
2021/10/15 05:24:32;;;;;;;8.30;7.35;;;;;;;14.54;45.99;100426.97;1784287;78;21072;-60
2021/10/15 05:26:58;;;;;;;8.00;7.12;;;;;;;14.54;45.99;100432.31;1795148;78;21060;-59
2021/10/15 05:29:25;;;;;;;8.55;7.67;;;;;;;14.55;45.99;100435.81;1765693;80;21034;-60
2021/10/15 05:31:51;;;;;;;10.23;7.62;;;;;;;14.54;45.98;100438.14;1749481;80;21517;-60
2021/10/15 05:34:17;;;;;;;8.60;7.70;;;;;;;14.55;45.96;100439.30;1760410;80;21796;-60
2021/10/15 05:36:44;;;;;;;9.23;7.75;;;;;;;14.55;45.97;100441.16;1768657;80;21100;-60
2021/10/15 05:39:10;;;;;;;8.65;7.53;;;;;;;14.54;45.95;100439.48;1771982;80;21136;-60
2021/10/15 05:41:37;;;;;;;8.28;6.90;;;;;;;14.54;45.96;100441.67;1768708;80;21007;-60
2021/10/15 05:44:03;;;;;;;8.38;7.47;;;;;;;14.55;45.94;100447.84;1775502;80;21061;-60
2021/10/15 05:46:31;;;;;;;11.90;8.43;;;;;;;14.54;45.94;100444.34;1765007;80;21026;-60
2021/10/15 05:48:57;;;;;;;7.80;7.00;;;;;;;14.56;45.92;100449.48;1772248;79;21010;-59
2021/10/15 05:51:25;;;;;;;8.25;7.28;;;;;;;14.57;45.93;100445.85;1784949;79;21393;-60
2021/10/15 05:53:54;;;;;;;8.88;7.40;;;;;;;14.56;45.93;100437.45;1799225;79;21049;-61
2021/10/15 05:58:49;;;;;;;8.73;7.83;;;;;;;14.59;45.90;100436.33;1790305;79;21501;-60
2021/10/15 06:01:26;;;;;;;11.15;8.55;;;;;;;14.60;45.88;100441.47;1782420;79;21061;-60
2021/10/15 06:14:26;;;;;;;8.58;7.37;;;;;;;14.66;45.81;100438.11;1766107;79;21084;-59
2021/10/15 06:16:53;;;;;;;8.73;7.80;;;;;;;14.69;45.79;100440.92;1777401;79;21094;-59
2021/10/15 06:19:21;;;;;;;8.10;7.00;;;;;;;14.69;45.78;100441.75;1786170;80;21054;-59
2021/10/15 06:21:47;;;;;;;8.58;7.70;;;;;;;14.71;45.79;100433.55;1789508;78;20964;-60
2021/10/15 06:24:14;;;;;;;9.25;7.90;;;;;;;14.72;45.75;100437.39;1783158;78;21650;-59
2021/10/15 06:26:40;;;;;;;8.98;7.45;;;;;;;14.74;45.73;100438.56;1760107;81;21198;-59
2021/10/15 06:29:07;;;;;;;8.25;7.45;;;;;;;14.76;45.70;100432.52;1788900;78;21097;-60
2021/10/15 06:31:35;;;;;;;9.38;8.38;;;;;;;14.79;45.66;100440.69;1794812;78;21005;-60
2021/10/15 06:34:01;;;;;;;8.15;7.28;;;;;;;14.81;45.66;100431.47;1768639;81;21074;-63
2021/10/15 06:36:28;;;;;;;8.63;7.60;;;;;;;14.83;45.63;100436.13;1764138;80;21061;-61
2021/10/15 06:38:54;;;;;;;8.65;7.58;;;;;;;14.85;45.61;100430.61;1781791;80;21644;-61
2021/10/15 06:41:21;;;;;;;7.95;7.05;;;;;;;14.87;45.56;100434.78;1785332;79;21049;-59
2021/10/15 06:43:47;;;;;;;8.10;7.30;;;;;;;14.88;45.54;100433.76;1792420;78;21005;-60
2021/10/15 06:46:13;;;;;;;8.20;7.00;;;;;;;14.92;45.51;100439.58;1793987;78;21466;-59
2021/10/15 06:48:40;;;;;;;8.43;7.53;;;;;;;14.93;45.47;100438.08;1788810;78;21077;-60
2021/10/15 06:51:06;;;;;;;7.97;7.17;;;;;;;14.96;45.42;100441.41;1806050;78;21060;-61
2021/10/15 06:53:34;;;;;;;8.58;7.67;;;;;;;14.98;45.40;100441.53;1813289;78;21109;-61
2021/10/15 06:56:00;;;;;;;8.95;7.15;;;;;;;15.01;45.37;100441.19;1800818;78;21082;-60
2021/10/15 06:58:27;;;;;;;8.58;7.60;;;;;;;15.03;45.34;100437.00;1809185;78;21066;-59
2021/10/15 07:00:53;;;;;;;8.15;7.03;;;;;;;15.05;45.29;100437.66;1808730;78;21073;-63
2021/10/15 07:03:20;;;;;;;8.33;7.22;;;;;;;15.07;45.25;100434.28;1797385;78;21103;-59
2021/10/15 07:05:47;;;;;;;9.00;7.67;;;;;;;15.08;45.23;100434.08;1797645;78;21117;-60
2021/10/15 07:08:14;;;;;;;8.10;7.30;;;;;;;15.11;45.21;100439.09;1795598;78;21040;-59
2021/10/15 07:10:40;;;;;;;8.03;7.22;;;;;;;15.13;45.15;100435.72;1774195;80;21097;-60
2021/10/15 07:13:06;;;;;;;8.65;7.67;;;;;;;15.15;45.13;100438.22;1761673;80;21075;-60
2021/10/15 07:15:33;;;;;;;8.95;7.15;;;;;;;15.18;45.10;100439.70;1785775;78;21089;-61
2021/10/15 07:18:01;;;;;;;9.28;7.33;;;;;;;15.20;45.06;100431.83;1783906;78;22284;-60
2021/10/15 07:20:27;;;;;;;8.75;7.85;;;;;;;15.23;45.03;100431.45;1773292;78;20993;-61
2021/10/15 07:22:55;;;;;;;7.58;6.70;;;;;;;15.24;45.01;100429.11;1794577;78;21028;-60
2021/10/15 07:25:21;;;;;;;8.05;7.25;;;;;;;15.27;44.98;100431.92;1794707;78;21712;-59
2021/10/15 07:27:49;;;;;;;7.78;6.97;;;;;;;15.29;44.96;100433.91;1783954;78;21566;-60
2021/10/15 07:31:50;;;;;;;7.75;6.92;;;;;;;15.37;44.88;100428.47;1812180;77;28047;-60
2021/10/15 07:34:16;;;;;;;7.72;7.00;;;;;;;15.34;44.85;100430.19;1783447;80;21064;-59
2021/10/15 07:36:42;;;;;;;8.23;7.40;;;;;;;15.37;44.83;100429.80;1771069;80;21020;-60
2021/10/15 07:39:11;;;;;;;10.68;7.28;;;;;;;15.39;44.78;100427.77;1757148;80;21008;-60
2021/10/15 07:41:43;;;;;;;7.00;6.40;;;;;;;15.42;44.74;100429.27;1774312;80;21128;-59
2021/10/15 07:44:09;;;;;;;8.03;7.33;;;;;;;15.45;44.71;100427.55;1719737;82;21030;-59
2021/10/15 07:46:35;;;;;;;7.97;7.03;;;;;;;15.47;44.69;100429.05;1740176;82;21526;-58
2021/10/15 07:49:01;;;;;;;8.33;7.50;;;;;;;15.50;44.64;100431.34;1785781;79;21092;-60
2021/10/15 07:51:27;;;;;;;7.37;6.67;;;;;;;15.52;44.61;100422.62;1776207;80;21006;-60
2021/10/15 07:53:54;;;;;;;8.00;7.20;;;;;;;15.56;44.58;100418.25;1740197;82;20967;-60
2021/10/15 07:56:20;;;;;;;8.00;7.12;;;;;;;15.60;44.54;100426.23;1768899;80;21037;-60
2021/10/15 07:58:46;;;;;;;8.05;6.90;;;;;;;15.62;44.54;100421.00;1755245;80;21030;-60
2021/10/15 08:01:13;;;;;;;7.72;6.92;;;;;;;15.65;44.50;100421.17;1763525;80;21109;-59
2021/10/15 08:03:39;;;;;;;7.53;6.60;;;;;;;15.69;44.47;100420.59;1772123;80;21561;-60
2021/10/15 08:06:05;;;;;;;7.70;6.87;;;;;;;15.72;44.44;100424.26;1780764;80;21996;-60
2021/10/15 08:08:32;;;;;;;8.18;7.37;;;;;;;15.75;44.40;100427.09;1780693;80;21185;-60
2021/10/15 08:10:59;;;;;;;8.18;7.37;;;;;;;15.80;44.38;100413.14;1762495;80;21018;-60
2021/10/15 08:13:25;;;;;;;7.97;6.80;;;;;;;15.79;44.33;100412.31;1773777;80;21129;-60
2021/10/15 08:15:51;;;;;;;7.67;6.95;;;;;;;15.87;44.29;100413.55;1783899;80;21657;-60
2021/10/15 08:18:18;;;;;;;7.45;6.55;;;;;;;15.91;44.24;100409.98;1766651;80;21073;-61
2021/10/15 08:20:45;;;;;;;8.08;6.85;;;;;;;15.95;44.21;100408.59;1772433;80;21093;-63
2021/10/15 08:23:11;;;;;;;8.15;7.35;;;;;;;15.99;44.19;100407.20;1772932;80;21513;-60
2021/10/15 08:25:39;;;;;;;7.60;6.85;;;;;;;16.03;44.17;100408.52;1762021;80;21249;-59
2021/10/15 08:28:06;;;;;;;7.62;6.92;;;;;;;16.08;44.11;100411.95;1784975;80;21057;-63
2021/10/15 08:30:32;;;;;;;7.67;6.45;;;;;;;16.12;44.06;100415.92;1783612;80;21029;-61
2021/10/15 08:32:58;;;;;;;8.23;7.10;;;;;;;16.18;44.07;100410.31;1756349;80;21065;-62
2021/10/15 08:35:25;;;;;;;9.38;7.03;;;;;;;16.22;44.09;100413.77;1772374;80;21011;-61
2021/10/15 08:37:52;;;;;;;8.43;6.90;;;;;;;16.29;44.02;100401.80;1780499;80;21199;-59
2021/10/15 08:40:19;;;;;;;6.45;5.83;;;;;;;16.34;43.98;100398.53;1771144;80;20999;-60
2021/10/15 08:42:52;;;;;;;7.00;6.05;;;;;;;16.40;43.92;100398.62;1776719;80;21018;-60
2021/10/15 08:45:27;;;;;;;6.70;6.10;;;;;;;16.46;43.84;100391.14;1782118;80;21533;-62
2021/10/15 08:47:54;;;;;;;6.78;6.08;;;;;;;16.53;43.79;100386.35;1781925;80;21561;-60
2021/10/15 08:50:20;;;;;;;6.70;5.97;;;;;;;16.58;43.73;100383.94;1781860;80;22011;-60
2021/10/15 08:52:47;;;;;;;7.30;6.00;;;;;;;16.65;43.67;100382.98;1781828;80;20987;-59
2021/10/15 08:55:14;;;;;;;7.30;6.58;;;;;;;16.70;43.60;100381.87;1772624;80;21034;-59
2021/10/15 08:57:48;;;;;;;7.12;6.00;;;;;;;16.78;43.52;100382.77;1769481;80;21014;-60
2021/10/15 09:00:34;;;;;;;6.50;5.90;;;;;;;16.84;43.48;100376.17;1768762;80;21031;-62
2021/10/15 09:03:19;;;;;;;6.12;5.53;;;;;;;16.93;43.39;100378.19;1762878;80;21122;-60
2021/10/15 09:05:52;;;;;;;6.90;6.20;;;;;;;16.98;43.28;100373.07;1781544;80;21527;-61
2021/10/15 09:08:19;;;;;;;6.42;5.75;;;;;;;17.06;43.19;100378.81;1753260;80;21022;-60
2021/10/15 09:10:46;;;;;;;7.10;5.80;;;;;;;17.13;43.12;100370.27;1781441;80;21791;-61
2021/10/15 09:13:20;;;;;;;6.90;6.20;;;;;;;17.22;43.03;100379.02;1777539;80;21465;-60
2021/10/15 09:15:49;;;;;;;6.15;5.50;;;;;;;17.28;42.98;100372.34;1753418;80;21125;-61
2021/10/15 09:18:31;;;;;;;6.53;5.90;;;;;;;17.37;42.90;100382.42;1774963;80;21042;-60
2021/10/15 09:20:57;;;;;;;6.08;5.47;;;;;;;17.45;42.83;100376.06;1751741;80;21065;-61
2021/10/15 09:23:49;;;;;;;5.87;5.25;;;;;;;17.54;42.73;100378.06;1746516;80;21095;-61
2021/10/15 09:26:16;;;;;;;6.12;5.47;;;;;;;17.63;42.68;100366.95;1743995;80;21693;-60
2021/10/15 09:28:46;;;;;;;5.75;5.12;;;;;;;17.73;42.62;100370.65;1782336;80;23244;-61
2021/10/15 09:31:14;;;;;;;5.67;5.08;;;;;;;17.80;42.56;100362.08;1762797;80;21006;-59
2021/10/15 09:33:56;;;;;;;6.97;5.53;;;;;;;17.90;42.51;100359.57;1761124;80;21073;-60
2021/10/15 09:36:22;;;;;;;5.35;4.70;;;;;;;17.99;42.40;100363.75;1766588;80;21070;-61
2021/10/15 09:38:51;;;;;;;5.47;4.97;;;;;;;18.07;42.37;100364.38;1770968;80;21006;-60
2021/10/15 09:41:40;;;;;;;6.03;5.05;;;;;;;18.18;42.27;100354.09;1744095;80;21197;-61
2021/10/15 09:44:33;;;;;;;5.58;4.97;;;;;;;18.26;42.24;100346.64;1760216;80;20998;-59
2021/10/15 09:47:24;;;;;;;5.58;4.72;;;;;;;18.36;42.15;100366.42;1754883;80;21069;-63
2021/10/15 09:50:03;;;;;;;5.00;4.58;;;;;;;18.46;42.11;100357.95;1762442;80;21119;-60
2021/10/15 09:52:40;;;;;;;6.03;5.12;;;;;;;18.56;42.04;100350.33;1762144;80;21072;-61
2021/10/15 09:55:18;;;;;;;5.25;4.75;;;;;;;18.64;41.97;100343.92;1764147;80;21144;-61
2021/10/15 09:57:48;;;;;;;5.25;4.75;;;;;;;18.71;41.92;100342.56;1752950;80;21051;-59
2021/10/15 10:00:44;;;;;;;;;;;;;;;;;;;;;
2021/10/15 10:02:58;;;;;;;5.28;4.53;;;;;;;18.90;41.81;100320.75;1758381;80;21043;-60
2021/10/15 10:05:25;;;;;;;5.22;4.72;;;;;;;18.99;41.84;100324.36;1772395;80;21053;-61
2021/10/15 10:07:53;;;;;;;4.60;4.20;;;;;;;19.10;41.80;100327.44;1762278;80;21017;-59
2021/10/15 10:10:25;;;;;;;5.72;5.12;;;;;;;19.19;41.73;100328.35;1771578;80;21065;-60
2021/10/15 10:12:53;;;;;;;6.87;4.53;;;;;;;19.29;41.71;100312.28;1748005;80;21123;-61
2021/10/15 10:15:23;;;;;;;5.00;4.35;;;;;;;19.39;41.61;100315.34;1768456;80;21534;-62
2021/10/15 10:21:08;;;;;;;4.80;4.37;;;;;;;19.57;41.46;100312.81;1753039;80;21132;-61
2021/10/15 10:23:55;;;;;;;4.85;4.33;;;;;;;19.68;41.39;100318.03;1771723;80;21583;-60
2021/10/15 10:26:22;;;;;;;4.53;4.05;;;;;;;19.78;41.32;100304.13;1765256;80;21575;-60
2021/10/15 10:29:05;;;;;;;4.78;4.20;;;;;;;19.88;41.24;100313.13;1765853;80;21019;-61
2021/10/15 10:31:32;;;;;;;5.20;4.35;;;;;;;19.96;41.16;100293.47;1780483;80;21029;-60
2021/10/15 10:34:01;;;;;;;4.95;4.50;;;;;;;20.06;41.04;100289.48;1770860;80;21750;-60
2021/10/15 10:36:30;;;;;;;4.75;4.28;;;;;;;20.15;40.99;100298.97;1781479;80;21057;-61
2021/10/15 10:38:56;;;;;;;4.80;4.17;;;;;;;20.26;40.89;100281.23;1768382;80;21030;-59
2021/10/15 10:41:27;;;;;;;5.03;4.45;;;;;;;20.34;40.78;100283.66;1761024;80;21026;-60
2021/10/15 10:43:59;;;;;;;4.33;3.65;;;;;;;20.45;40.72;100292.94;1784776;80;20985;-60
2021/10/15 10:46:27;;;;;;;4.25;3.85;;;;;;;20.54;40.67;100295.67;1784894;80;21116;-61
2021/10/15 10:48:59;;;;;;;4.30;3.90;;;;;;;20.64;40.55;100281.70;1759795;80;21037;-60
2021/10/15 10:51:31;;;;;;;4.22;3.83;;;;;;;20.74;40.49;100275.27;1775473;80;21034;-64
2021/10/15 10:54:10;;;;;;;4.15;3.75;;;;;;;20.83;40.39;100294.73;1779549;80;21014;-61
2021/10/15 10:56:50;;;;;;;4.42;4.00;;;;;;;20.91;40.26;100287.16;1751164;80;21041;-60
2021/10/15 10:59:25;;;;;;;4.53;3.90;;;;;;;21.00;40.17;100287.17;1761736;80;21772;-60
2021/10/15 11:02:04;;;;;;;4.03;3.35;;;;;;;21.11;40.08;100278.02;1747018;80;21003;-60
2021/10/15 11:04:35;;;;;;;4.50;4.10;;;;;;;21.20;40.00;100279.38;1746837;80;21546;-60
2021/10/15 11:07:05;;;;;;;4.75;4.30;;;;;;;21.30;39.93;100280.20;1773847;80;21073;-60
2021/10/15 11:09:53;;;;;;;4.62;4.22;;;;;;;21.38;39.83;100267.22;1784394;80;21131;-59
2021/10/15 11:12:31;;;;;;;4.28;3.87;;;;;;;21.47;39.74;100263.70;1784619;80;21489;-60
2021/10/15 11:15:11;;;;;;;4.08;3.67;;;;;;;21.57;39.66;100267.22;1771901;80;21502;-60
2021/10/15 11:17:41;;;;;;;4.08;3.70;;;;;;;21.66;39.56;100268.56;1784932;80;21061;-60
2021/10/15 11:20:21;;;;;;;4.22;3.83;;;;;;;21.75;39.48;100257.73;1755020;80;21061;-61
2021/10/15 11:22:56;;;;;;;3.98;3.65;;;;;;;21.82;39.43;100263.56;1767015;80;21010;-59
2021/10/15 11:25:26;;;;;;;4.45;4.05;;;;;;;21.89;39.35;100254.30;1772419;80;21174;-59
2021/10/15 11:28:00;;;;;;;4.30;3.58;;;;;;;21.95;39.30;100248.50;1772871;80;21029;-59
2021/10/15 11:30:30;;;;;;;3.50;3.20;;;;;;;22.03;39.23;100250.05;1760278;80;21658;-60
2021/10/15 11:32:56;;;;;;;3.58;3.15;;;;;;;22.09;39.20;100258.05;1772063;80;21072;-60
2021/10/15 11:35:35;;;;;;;3.72;3.42;;;;;;;22.18;39.15;100247.73;1777716;80;21025;-60
2021/10/15 11:38:18;;;;;;;4.10;3.80;;;;;;;22.15;39.10;100226.01;1779076;80;22049;-59
2021/10/15 11:40:44;;;;;;;4.35;3.45;;;;;;;22.33;39.01;100235.16;1779340;80;21088;-60
2021/10/15 11:43:16;;;;;;;3.67;3.33;;;;;;;22.44;38.91;100244.33;1781377;80;21077;-59
2021/10/15 11:45:49;;;;;;;4.10;3.72;;;;;;;22.53;38.83;100233.45;1769644;80;21074;-61
2021/10/15 11:48:41;;;;;;;3.70;3.40;;;;;;;22.62;38.75;100227.14;1779107;80;21041;-61
2021/10/15 11:51:14;;;;;;;3.83;3.52;;;;;;;22.70;38.66;100219.50;1771475;80;21139;-62